This is the latest recevied weather packets stored in our database for station/object KD8FRE. If no packets are shown the sender has not sent any weather packets the latest 1 day(s).
| Time | Temp. | Humidity | Pressure | Rain* | Wind** | Luminosity | Snow |
|---|---|---|---|---|---|---|---|
| 1836274713 | 16.11° C | 73% | 1021.9 hPa | 0 mm | 0.45 m/s, 54° | 0 W/m² | - |
| 1836274566 | 15.56° C | 73% | 1022.1 hPa | 0 mm | 0 m/s | 0 W/m² | - |
| 1836274411 | 16.11° C | 74% | 1022.1 hPa | 0 mm | 0 m/s | 0 W/m² | - |
| 1836274265 | 16.11° C | 73% | 1022.2 hPa | 0 mm | 0 m/s | 0 W/m² | - |
| 1836274109 | 16.11° C | 74% | 1022.1 hPa | 0 mm | 0 m/s | 0 W/m² | - |
| 1778040489 | 8.89° C | 55% | 1009.2 hPa | 0 mm | 1.34 m/s, 301° | 0 W/m² | - |
| 1778040186 | 8.89° C | 54% | 1009 hPa | 0 mm | 0.89 m/s, 311° | 0 W/m² | - |
| 1778039882 | 8.89° C | 54% | 1009.2 hPa | 0 mm | 1.34 m/s, 298° | 0 W/m² | - |
| 1778039579 | 9.44° C | 55% | 1009 hPa | 0 mm | 1.79 m/s, 291° | 0 W/m² | - |
| 1778039276 | 9.44° C | 54% | 1009 hPa | 0 mm | 0.89 m/s, 303° | 0 W/m² | - |
| 1778038973 | 9.44° C | 54% | 1009.3 hPa | 0 mm | 0.89 m/s, 294° | 0 W/m² | - |
| 1778038670 | 9.44° C | 54% | 1009 hPa | 0 mm | 0.89 m/s, 292° | 0 W/m² | - |
| 1778038367 | 9.44° C | 55% | 1009 hPa | 0 mm | 0.89 m/s, 306° | 0 W/m² | - |
| 1778038064 | 9.44° C | 54% | 1009 hPa | 0 mm | 0.89 m/s, 297° | 0 W/m² | - |
| 1778037761 | 9.44° C | 54% | 1009.3 hPa | 0 mm | 0.89 m/s, 290° | 0 W/m² | - |
| 1778037458 | 9.44° C | 56% | 1009.1 hPa | 0 mm | 0.45 m/s, 289° | 0 W/m² | - |
| 1778037155 | 9.44° C | 54% | 1009.2 hPa | 0 mm | 0.89 m/s, 289° | 0 W/m² | - |
| 1778036853 | 9.44° C | 54% | 1009.3 hPa | 0 mm | 0.89 m/s, 290° | 0 W/m² | - |
| 1778036550 | 9.44° C | 53% | 1009.2 hPa | 0 mm | 0.89 m/s, 285° | 0 W/m² | - |
| 1778036247 | 9.44° C | 54% | 1009.3 hPa | 0 mm | 1.34 m/s, 290° | 0 W/m² | - |
| 1778035944 | 9.44° C | 53% | 1009.1 hPa | 0 mm | 0.89 m/s, 291° | 0 W/m² | - |
| 1778035641 | 9.44° C | 54% | 1009 hPa | 0 mm | 0.45 m/s, 290° | 0 W/m² | - |
| 1778035337 | 9.44° C | 53% | 1009 hPa | 0 mm | 0.89 m/s, 289° | 0 W/m² | - |
| 1778035033 | 9.44° C | 53% | 1009.1 hPa | 0 mm | 0 m/s | 0 W/m² | - |
| 1778034731 | 9.44° C | 53% | 1009 hPa | 0 mm | 0.45 m/s, 294° | 0 W/m² | - |
* Rain latest hour (hover to see other rain measurements)
** Current wind speed in m/s (hover to see current wind gust speed)